createdAt,value
2023-09-23T00:00:48.757Z,70.58
2023-09-23T00:03:46.540Z,70.62
2023-09-23T00:06:44.344Z,70.71
2023-09-23T00:09:42.535Z,70.73
2023-09-23T00:12:39.944Z,70.90
2023-09-23T00:15:37.653Z,70.90
2023-09-23T00:18:35.284Z,70.93
2023-09-23T00:21:33.017Z,71.07
2023-09-23T00:24:30.507Z,71.18
2023-09-23T00:27:28.941Z,71.34
2023-09-23T00:30:27.831Z,71.41
2023-09-23T00:33:27.045Z,71.33
2023-09-23T00:36:26.156Z,71.30
2023-09-23T00:39:23.825Z,71.23
2023-09-23T00:42:21.468Z,71.22
2023-09-23T00:45:23.465Z,71.24
2023-09-23T00:48:23.029Z,71.32
2023-09-23T00:51:22.516Z,71.30
2023-09-23T00:54:23.014Z,71.24
2023-09-23T00:57:20.406Z,71.21
2023-09-23T01:00:26.305Z,71.29
2023-09-23T01:03:24.177Z,71.27
2023-09-23T01:06:23.465Z,71.21
2023-09-23T01:09:23.396Z,71.12
2023-09-23T01:12:20.941Z,71.11
2023-09-23T01:15:19.653Z,71.03
2023-09-23T01:18:17.046Z,71.00
2023-09-23T01:21:14.641Z,70.99
2023-09-23T01:24:12.026Z,70.89
2023-09-23T01:27:10.173Z,70.82
2023-09-23T01:30:07.554Z,70.78
2023-09-23T01:33:06.857Z,70.80
2023-09-23T01:36:04.836Z,70.87
2023-09-23T01:39:06.197Z,70.91
2023-09-23T01:42:03.596Z,71.00
2023-09-23T01:45:01.232Z,70.99
2023-09-23T01:47:59.113Z,71.07
2023-09-23T01:50:58.467Z,71.10
2023-09-23T01:53:56.692Z,71.22
2023-09-23T01:56:54.782Z,71.30
2023-09-23T01:59:52.224Z,71.33
2023-09-23T02:02:50.696Z,71.48
2023-09-23T02:05:48.355Z,71.47
2023-09-23T02:08:46.135Z,71.57
2023-09-23T02:11:43.646Z,71.76
2023-09-23T02:14:41.351Z,72.00
2023-09-23T02:17:38.826Z,72.19
2023-09-23T02:20:37.503Z,72.38
2023-09-23T02:23:34.895Z,72.51
2023-09-23T02:26:32.494Z,72.65
2023-09-23T02:29:30.825Z,72.76
2023-09-23T02:32:28.552Z,73.03
2023-09-23T02:35:26.547Z,73.17
2023-09-23T02:38:24.569Z,73.37
2023-09-23T02:41:23.726Z,73.39
2023-09-23T02:44:21.516Z,73.46
2023-09-23T02:47:19.638Z,73.61
2023-09-23T02:50:19.401Z,73.78
2023-09-23T02:53:17.040Z,74.01
2023-09-23T02:56:16.688Z,74.15
2023-09-23T02:59:15.193Z,74.29
2023-09-23T03:02:21.784Z,74.50
2023-09-23T03:05:19.450Z,74.63
2023-09-23T03:08:17.170Z,74.76
2023-09-23T03:11:19.212Z,74.92
2023-09-23T03:14:19.869Z,75.07
2023-09-23T03:17:23.399Z,75.13
2023-09-23T03:20:23.683Z,75.28
2023-09-23T03:23:22.033Z,75.43
2023-09-23T03:26:19.452Z,75.57
2023-09-23T03:29:19.927Z,75.70
2023-09-23T03:32:17.769Z,75.82
2023-09-23T03:35:18.885Z,75.93
2023-09-23T03:38:16.947Z,76.03
2023-09-23T03:41:14.784Z,76.19
2023-09-23T03:44:12.618Z,76.35
2023-09-23T03:47:10.069Z,76.43
2023-09-23T03:50:09.029Z,76.55
2023-09-23T03:53:09.304Z,76.68
2023-09-23T03:56:07.811Z,76.76
2023-09-23T03:59:07.322Z,76.82
2023-09-23T04:02:06.477Z,76.99
2023-09-23T04:05:04.589Z,77.05
2023-09-23T04:08:02.062Z,77.10
2023-09-23T04:11:00.014Z,77.16
2023-09-23T04:13:58.459Z,77.19
2023-09-23T04:16:56.175Z,77.32
2023-09-23T04:19:54.931Z,77.31
2023-09-23T04:22:52.794Z,77.38
2023-09-23T04:25:50.987Z,77.43
2023-09-23T04:28:49.423Z,77.50
2023-09-23T04:31:47.090Z,77.59
2023-09-23T04:34:44.969Z,77.67
2023-09-23T04:37:42.582Z,77.74
2023-09-23T04:40:41.008Z,77.82
2023-09-23T04:43:39.158Z,77.90
2023-09-23T04:46:37.387Z,77.89
2023-09-23T04:49:35.439Z,77.83
2023-09-23T04:52:33.024Z,77.80
2023-09-23T04:55:30.857Z,77.83
2023-09-23T04:58:28.258Z,77.93
2023-09-23T05:01:25.967Z,77.99
2023-09-23T05:04:23.543Z,78.04
2023-09-23T05:07:21.324Z,78.07
2023-09-23T05:10:19.728Z,78.16
2023-09-23T05:13:19.276Z,78.28
2023-09-23T05:16:17.843Z,78.28
2023-09-23T05:19:16.183Z,78.26
2023-09-23T05:22:14.305Z,78.19
2023-09-23T05:25:13.117Z,78.18
2023-09-23T05:28:11.538Z,78.19
2023-09-23T05:31:09.278Z,78.29
2023-09-23T05:34:07.777Z,78.21
2023-09-23T05:37:06.058Z,78.11
2023-09-23T05:40:09.895Z,78.11
2023-09-23T05:43:07.950Z,78.13
2023-09-23T05:46:08.176Z,78.12
2023-09-23T05:49:06.740Z,78.11
2023-09-23T05:52:04.220Z,78.03
2023-09-23T05:55:03.245Z,78.10
2023-09-23T05:58:00.717Z,78.08
2023-09-23T06:00:58.529Z,78.03
2023-09-23T06:03:57.040Z,78.10
2023-09-23T06:06:56.408Z,78.10
2023-09-23T06:09:54.184Z,78.18
2023-09-23T06:12:51.797Z,78.23
2023-09-23T06:15:49.198Z,78.11
2023-09-23T06:18:46.992Z,78.06
2023-09-23T06:21:44.415Z,78.05
2023-09-23T06:24:42.634Z,78.00
2023-09-23T06:27:40.027Z,78.07
2023-09-23T06:30:37.752Z,78.13
2023-09-23T06:33:35.224Z,78.19
2023-09-23T06:36:32.962Z,78.15
2023-09-23T06:39:30.396Z,78.12
2023-09-23T06:42:28.097Z,78.12
2023-09-23T06:45:25.490Z,78.10
2023-09-23T06:48:23.188Z,78.03
2023-09-23T06:51:20.607Z,78.02
2023-09-23T06:54:18.204Z,77.97
2023-09-23T06:57:15.922Z,77.81
2023-09-23T07:00:13.406Z,77.74
2023-09-23T07:03:11.214Z,77.68
2023-09-23T07:06:09.009Z,77.49
2023-09-23T07:09:06.896Z,77.40
2023-09-23T07:12:04.656Z,77.47
2023-09-23T07:15:02.040Z,77.34
2023-09-23T07:17:59.775Z,77.38
2023-09-23T07:20:57.202Z,77.32
2023-09-23T07:23:54.877Z,77.46
2023-09-23T07:26:52.280Z,77.65
2023-09-23T07:29:49.855Z,77.70
2023-09-23T07:32:47.303Z,77.59
2023-09-23T07:35:46.048Z,77.56
2023-09-23T07:38:43.457Z,77.39
2023-09-23T07:41:41.014Z,77.45
2023-09-23T07:44:38.439Z,77.46
2023-09-23T07:47:36.260Z,77.43
2023-09-23T07:50:34.594Z,77.40
2023-09-23T07:53:32.346Z,77.38
2023-09-23T07:56:29.807Z,77.15
2023-09-23T07:59:27.771Z,77.11
2023-09-23T08:02:25.614Z,76.97
2023-09-23T08:05:25.355Z,76.81
2023-09-23T08:08:23.359Z,76.68
2023-09-23T08:11:20.926Z,76.50
2023-09-23T08:14:18.401Z,76.32
2023-09-23T08:17:16.581Z,76.18
2023-09-23T08:20:21.394Z,75.99
2023-09-23T08:23:18.920Z,75.93
2023-09-23T08:26:17.264Z,75.81
2023-09-23T08:29:15.763Z,75.74
2023-09-23T08:32:13.411Z,75.62
2023-09-23T08:35:12.195Z,75.56
2023-09-23T08:38:09.739Z,75.38
2023-09-23T08:41:08.379Z,75.14
2023-09-23T08:44:05.857Z,75.03
2023-09-23T08:47:03.660Z,74.77
2023-09-23T08:50:01.100Z,74.55
2023-09-23T08:52:58.781Z,74.35
2023-09-23T08:55:56.499Z,74.16
2023-09-23T08:58:53.961Z,73.88
2023-09-23T09:01:51.681Z,73.62
2023-09-23T09:04:49.165Z,73.38
2023-09-23T09:07:46.786Z,73.31
2023-09-23T09:10:44.509Z,73.18
2023-09-23T09:13:42.202Z,72.68
2023-09-23T09:16:40.323Z,72.62
2023-09-23T09:19:41.117Z,72.32
2023-09-23T09:22:39.209Z,72.11
2023-09-23T09:25:36.971Z,71.93
2023-09-23T09:28:34.724Z,71.70
2023-09-23T09:31:32.163Z,71.41
2023-09-23T09:34:29.946Z,71.33
2023-09-23T09:37:28.115Z,71.19
2023-09-23T09:40:25.800Z,71.18
2023-09-23T09:43:23.200Z,70.87
2023-09-23T09:46:22.312Z,70.53
2023-09-23T09:49:19.717Z,70.46
2023-09-23T09:52:17.362Z,70.25
2023-09-23T09:55:17.082Z,70.17
2023-09-23T09:58:14.864Z,69.93
2023-09-23T10:01:14.126Z,69.51
2023-09-23T10:04:12.761Z,69.49
2023-09-23T10:07:10.151Z,69.13
2023-09-23T10:10:07.764Z,68.70
2023-09-23T10:13:05.170Z,68.53
2023-09-23T10:16:02.805Z,68.04
2023-09-23T10:19:00.302Z,67.78
2023-09-23T10:21:59.417Z,67.65
2023-09-23T10:24:56.970Z,67.57
2023-09-23T10:27:54.519Z,67.50
2023-09-23T10:30:52.160Z,67.31
2023-09-23T10:33:49.773Z,66.65
2023-09-23T10:36:48.933Z,66.50
2023-09-23T10:39:46.762Z,66.36
2023-09-23T10:42:44.424Z,65.81
2023-09-23T10:45:42.112Z,65.32
2023-09-23T10:48:39.491Z,64.92
2023-09-23T10:51:37.413Z,64.67
2023-09-23T10:54:36.438Z,64.44
2023-09-23T10:57:33.841Z,64.03
2023-09-23T11:00:34.643Z,63.63
2023-09-23T11:03:32.708Z,63.47
2023-09-23T11:06:30.254Z,63.35
2023-09-23T11:09:28.240Z,63.26
2023-09-23T11:12:29.479Z,63.10
2023-09-23T11:15:27.181Z,63.08
2023-09-23T11:18:25.110Z,62.74
2023-09-23T11:21:22.977Z,62.75
2023-09-23T11:24:21.660Z,62.54
2023-09-23T11:27:19.618Z,62.52
2023-09-23T11:30:17.419Z,62.30
2023-09-23T11:33:14.897Z,62.07
2023-09-23T11:36:12.538Z,61.94
2023-09-23T11:39:11.657Z,61.74
2023-09-23T11:42:09.243Z,61.58
2023-09-23T11:45:06.988Z,61.60
2023-09-23T11:48:07.673Z,61.36
2023-09-23T11:51:05.164Z,61.10
2023-09-23T11:54:02.780Z,61.06
2023-09-23T11:57:00.490Z,60.65
2023-09-23T11:59:58.219Z,60.42
2023-09-23T12:02:55.945Z,60.53
2023-09-23T12:05:55.476Z,60.31
2023-09-23T12:08:53.003Z,59.91
2023-09-23T12:11:51.798Z,59.75
2023-09-23T12:14:49.877Z,59.70
2023-09-23T12:17:47.507Z,59.69
2023-09-23T12:20:44.939Z,59.75
2023-09-23T12:23:43.384Z,60.00
2023-09-23T12:26:41.090Z,60.01
2023-09-23T12:29:38.598Z,59.96
2023-09-23T12:32:36.913Z,60.08
2023-09-23T12:35:34.851Z,60.12
2023-09-23T12:38:32.627Z,59.88
2023-09-23T12:41:30.606Z,59.88
2023-09-23T12:44:28.786Z,59.71
2023-09-23T12:47:30.195Z,59.52
2023-09-23T12:50:35.115Z,59.38
2023-09-23T12:53:32.578Z,59.23
2023-09-23T12:56:31.576Z,58.83
2023-09-23T12:59:29.691Z,58.83
2023-09-23T13:02:27.943Z,58.77
2023-09-23T13:05:25.706Z,58.40
2023-09-23T13:08:25.207Z,58.17
2023-09-23T13:11:24.447Z,58.00
2023-09-23T13:14:24.309Z,57.37
2023-09-23T13:17:22.611Z,56.85
2023-09-23T13:20:21.074Z,56.33
2023-09-23T13:23:19.577Z,55.58
2023-09-23T13:26:18.176Z,55.37
2023-09-23T13:29:17.150Z,55.10
2023-09-23T13:32:16.732Z,54.83
2023-09-23T13:35:16.125Z,54.75
2023-09-23T13:38:15.795Z,54.67
2023-09-23T13:41:16.054Z,54.78
2023-09-23T13:44:16.267Z,54.74
2023-09-23T13:47:15.766Z,55.03
2023-09-23T13:50:15.373Z,54.85
2023-09-23T13:53:14.634Z,54.97
2023-09-23T13:56:14.271Z,55.05
2023-09-23T13:59:13.768Z,55.24
2023-09-23T14:02:13.493Z,55.52
2023-09-23T14:05:14.028Z,55.75
2023-09-23T14:08:13.416Z,55.94
2023-09-23T14:11:12.890Z,55.97
2023-09-23T14:14:12.546Z,56.28
2023-09-23T14:17:12.450Z,56.60
2023-09-23T14:20:14.828Z,56.85
2023-09-23T14:23:15.092Z,56.99
2023-09-23T14:26:14.486Z,57.04
2023-09-23T14:29:14.212Z,57.02
2023-09-23T14:32:14.185Z,57.17
2023-09-23T14:35:13.433Z,57.55
2023-09-23T14:38:13.277Z,57.64
2023-09-23T14:41:12.819Z,57.79
2023-09-23T14:44:12.336Z,57.96
2023-09-23T14:47:11.828Z,58.23
2023-09-23T14:50:13.411Z,58.47
2023-09-23T14:53:12.743Z,58.78
2023-09-23T14:56:12.532Z,58.92
2023-09-23T14:59:12.634Z,59.22
2023-09-23T15:02:12.505Z,59.44
2023-09-23T15:05:12.267Z,59.61
2023-09-23T15:08:12.355Z,59.78
2023-09-23T15:11:11.977Z,59.82
2023-09-23T15:14:12.300Z,59.99
2023-09-23T15:17:15.901Z,60.08
2023-09-23T15:20:15.813Z,60.17
2023-09-23T15:23:15.578Z,60.20
2023-09-23T15:26:15.212Z,60.32
2023-09-23T15:29:15.015Z,60.34
2023-09-23T15:32:14.580Z,60.47
2023-09-23T15:35:14.872Z,60.60
2023-09-23T15:38:14.844Z,60.61
2023-09-23T15:41:14.256Z,60.53
2023-09-23T15:44:14.413Z,60.45
2023-09-23T15:47:14.228Z,60.35
2023-09-23T15:50:13.821Z,60.29
2023-09-23T15:53:13.220Z,60.26
2023-09-23T15:56:13.484Z,60.27
2023-09-23T15:59:12.849Z,60.38
2023-09-23T16:02:12.420Z,60.45
2023-09-23T16:05:12.398Z,60.50
2023-09-23T16:08:12.015Z,60.66
2023-09-23T16:11:11.435Z,60.78
2023-09-23T16:14:11.846Z,60.92
2023-09-23T16:17:14.394Z,61.02
2023-09-23T16:20:14.165Z,61.04
2023-09-23T16:23:13.993Z,61.13
2023-09-23T16:26:14.670Z,61.08
2023-09-23T16:29:14.722Z,61.11
2023-09-23T16:32:14.381Z,61.23
2023-09-23T16:35:13.866Z,61.36
2023-09-23T16:38:13.492Z,61.48
2023-09-23T16:41:12.875Z,61.59
2023-09-23T16:44:13.883Z,61.67
2023-09-23T16:47:13.240Z,61.80
2023-09-23T16:50:12.988Z,61.95
2023-09-23T16:53:13.502Z,62.07
2023-09-23T16:56:13.383Z,62.12
2023-09-23T16:59:12.907Z,62.34
2023-09-23T17:02:13.034Z,62.15
2023-09-23T17:05:12.428Z,62.11
2023-09-23T17:08:11.633Z,62.05
2023-09-23T17:11:11.529Z,62.00
2023-09-23T17:14:10.629Z,62.00
2023-09-23T17:17:09.751Z,61.99
2023-09-23T17:20:08.911Z,61.99
2023-09-23T17:23:08.473Z,61.93
2023-09-23T17:26:07.516Z,62.00
2023-09-23T17:29:08.558Z,61.95
2023-09-23T17:32:08.128Z,61.95
2023-09-23T17:35:07.833Z,61.89
2023-09-23T17:38:07.944Z,61.88
2023-09-23T17:41:07.556Z,61.80
2023-09-23T17:44:07.680Z,61.80
2023-09-23T17:47:08.223Z,61.80
2023-09-23T17:50:08.493Z,61.80
2023-09-23T17:53:09.485Z,61.82
2023-09-23T17:56:09.468Z,61.84
2023-09-23T17:59:10.841Z,61.90
2023-09-23T18:02:11.266Z,61.91
2023-09-23T18:05:16.096Z,61.92
2023-09-23T18:08:21.265Z,61.97
2023-09-23T18:11:21.245Z,62.02
2023-09-23T18:14:21.193Z,62.10
2023-09-23T18:17:21.240Z,62.12
2023-09-23T18:20:26.433Z,62.23
2023-09-23T18:23:26.281Z,62.31
2023-09-23T18:26:26.407Z,62.35
2023-09-23T18:29:26.137Z,62.40
2023-09-23T18:32:33.267Z,62.47
2023-09-23T18:35:34.161Z,62.65
2023-09-23T18:38:34.130Z,62.85
2023-09-23T18:41:35.375Z,62.82
2023-09-23T18:44:35.288Z,62.82
2023-09-23T18:47:35.362Z,62.78
2023-09-23T18:50:40.044Z,62.83
2023-09-23T18:53:40.047Z,62.86
2023-09-23T18:56:40.153Z,62.79
2023-09-23T18:59:39.834Z,62.75
2023-09-23T19:02:40.442Z,62.77
2023-09-23T19:05:40.905Z,62.71
2023-09-23T19:08:41.714Z,62.73
2023-09-23T19:11:41.849Z,62.69
2023-09-23T19:14:44.682Z,62.78
2023-09-23T19:17:44.394Z,62.82
2023-09-23T19:20:44.636Z,62.91
2023-09-23T19:23:44.476Z,62.91
2023-09-23T19:26:55.660Z,62.86
2023-09-23T19:29:56.890Z,62.80
2023-09-23T19:32:58.208Z,62.80
2023-09-23T19:36:00.779Z,62.80
2023-09-23T19:39:03.097Z,62.70
2023-09-23T19:42:05.579Z,62.69
2023-09-23T19:45:06.989Z,62.60
2023-09-23T19:48:08.546Z,62.48
2023-09-23T19:51:10.680Z,62.38
2023-09-23T19:54:12.208Z,62.33
2023-09-23T19:57:12.027Z,62.25
2023-09-23T20:00:15.569Z,62.13
2023-09-23T20:03:16.298Z,62.19
2023-09-23T20:06:16.789Z,62.26
2023-09-23T20:09:16.692Z,62.30
2023-09-23T20:12:19.490Z,62.42
2023-09-23T20:15:22.184Z,62.52
2023-09-23T20:18:22.129Z,62.62
2023-09-23T20:21:21.718Z,62.74
2023-09-23T20:24:21.217Z,62.84
2023-09-23T20:27:21.265Z,62.94
2023-09-23T20:30:20.742Z,63.01
2023-09-23T20:33:23.723Z,63.14
2023-09-23T20:36:23.756Z,63.21
2023-09-23T20:39:25.925Z,63.23
2023-09-23T20:42:26.149Z,63.28
2023-09-23T20:45:27.508Z,63.22
2023-09-23T20:48:29.158Z,63.21
2023-09-23T20:51:28.918Z,63.27
2023-09-23T20:54:28.226Z,63.29
2023-09-23T20:57:37.208Z,63.29
2023-09-23T21:00:36.577Z,63.30
2023-09-23T21:03:34.889Z,63.31
2023-09-23T21:06:32.655Z,63.33
2023-09-23T21:09:30.433Z,63.37
2023-09-23T21:12:27.902Z,63.36
2023-09-23T21:15:26.514Z,63.37
2023-09-23T21:18:24.061Z,63.40
2023-09-23T21:21:21.715Z,63.47
2023-09-23T21:24:19.182Z,63.49
2023-09-23T21:27:16.922Z,63.48
2023-09-23T21:30:14.392Z,63.56
2023-09-23T21:33:12.121Z,63.49
2023-09-23T21:36:09.598Z,63.49
2023-09-23T21:39:07.186Z,63.34
2023-09-23T21:42:04.607Z,63.30
2023-09-23T21:45:02.584Z,63.32
2023-09-23T21:48:02.317Z,63.30
2023-09-23T21:51:00.174Z,63.26
2023-09-23T21:53:58.346Z,63.21
2023-09-23T21:56:56.362Z,63.20
2023-09-23T21:59:53.867Z,63.22
2023-09-23T22:02:51.572Z,63.29
2023-09-23T22:05:49.277Z,63.31
2023-09-23T22:08:50.032Z,63.40
2023-09-23T22:11:48.091Z,63.46
2023-09-23T22:14:46.711Z,63.58
2023-09-23T22:17:44.523Z,63.69
2023-09-23T22:20:45.932Z,63.76
2023-09-23T22:23:43.754Z,63.87
2023-09-23T22:26:42.153Z,64.03
2023-09-23T22:29:40.124Z,64.10
2023-09-23T22:32:38.253Z,64.26
2023-09-23T22:35:36.376Z,64.43
2023-09-23T22:38:34.067Z,64.56
2023-09-23T22:41:32.038Z,64.65
2023-09-23T22:44:30.075Z,64.78
2023-09-23T22:47:27.808Z,64.82
2023-09-23T22:50:26.246Z,64.91
2023-09-23T22:53:24.126Z,65.03
2023-09-23T22:56:21.870Z,65.09
2023-09-23T22:59:20.349Z,65.19
2023-09-23T23:02:18.045Z,65.23
2023-09-23T23:05:16.296Z,65.29
2023-09-23T23:08:14.450Z,65.43
2023-09-23T23:11:12.121Z,65.52
2023-09-23T23:14:09.587Z,65.58
2023-09-23T23:17:08.903Z,65.62
2023-09-23T23:20:10.345Z,65.70
2023-09-23T23:23:08.021Z,65.70
2023-09-23T23:26:05.897Z,65.78
2023-09-23T23:29:03.771Z,65.80
2023-09-23T23:32:01.400Z,65.80
2023-09-23T23:34:59.197Z,65.85
2023-09-23T23:37:56.885Z,65.85
2023-09-23T23:40:56.058Z,65.88
2023-09-23T23:43:53.920Z,65.88
2023-09-23T23:46:52.493Z,65.86
2023-09-23T23:49:51.406Z,65.90
2023-09-23T23:52:50.526Z,65.87
2023-09-23T23:55:49.142Z,65.80
2023-09-23T23:58:47.676Z,65.80
